Austintown, Ohio
Current Conditions -  °F | °C
As of 12:12 AM on Friday 28 Nov 2014 (Local Time) from KYNG Reporting Station
Light Snow Light Snow  
Wind Chill: 17°   Ceiling: 600
Heat Index: 27°   Visibility: 3mi
Dew Point: 25°   Wind: 10mph
Humidity: 92%   Direction: 330°NNW
Pressure: 30.19"   Gusts: NA
Location:  41.1°N, 80.76°W
Report Text: KYNG 280512Z 33009KT 3SM -SN BR BKN006 OVC013 M03/M04 A3019 RMK AO2 P0001 T10281039
Loading
Personal Weather Stations






























Interactive Weather Map New forecast layout! Learn more

10-Day Weather Forecast

Advertisements
Track Severe Weather on mobile